Kenton, DE (19955)

18:11 EDT le 28 septembre 2016 (GMT -0400)
Northridge | | Change Station

Alt. 26 ft 39.25 °N, 75.60 °W | Updated 1 minute ago

Light Rain
Pluie fine
68.3 ° F
Paraît 68.3 ° F
N
0.0
Vent Variable Vent de ENE
Gusts 7.0 mph

Aujourd'hui
Haut(e) -- | Bas -- ° F
--% Risque de précip.
Hier
Haut(e) -- | Bas -- ° F
Precip. -- pouce
Pression 30.03 pouce
Visibilité 7.0 Miles terrestres
Nuages Couvert 1000 ft
Point de rosée 66 ° F
Humidité 92%
Précipitations 0.35 pouce
Profondeur de la couche neigeuse Non disponible.
6:56 AM 6:49 PM
Lune descendante, 4% visible
SPECI KDOV 282203Z AUTO 06019G22KT 7SM -RA OVC010 20/20 A3003 RMK AO2 CIG 010V012 OVC V BKN $
Pression 30.03 pouce
Visibilité 7.0 Miles terrestres
Nuages Couvert 1000 ft
Point de rosée 66 ° F
Humidité 92%
Précipitations 0.35 pouce
Profondeur de la couche neigeuse Non disponible.
6:56 AM 6:49 PM
Lune descendante, 4% visible
SPECI KDOV 282203Z AUTO 06019G22KT 7SM -RA OVC010 20/20 A3003 RMK AO2 CIG 010V012 OVC V BKN $

10-Day Weather Forecast

Almanac

Astronomie

Sep. 28, 2016 Lever Coucher
Temps réel
Crépuscule civil
Crépuscule nautique
Crépuscule astronomique
Lune
Durée de lumière visible
Longueur du jour
Tomorrow will be .
, % of the Moon is Illuminated

Extrêmes aujourd'hui

State Highs State Lows

Community

WunderPhotos

Upload Photos

1,942,335 Photos téléchargées !

WunderBlog® & News

Nearby

Qualité de l'air

  Qualité de l'air Indice de la qualité de l'air Polluant
Not available.

Épaisseur de neige

Station Depth Altitude

Activité sismique

Ville Distance Mag. Time & Date
Minimum magnitude displayed is 2.5.

Températures des eaux côtières

Lieu Température

Stations

Stations météo à proximité

Emplacement de la station Température Refroidissement éolien Point de rosée Humidité Vent Precip. Alt. Mise à jour Type
                   

Watches & Warnings

There are currently no watches in effect.